createdAt,value
2019-05-21T00:01:17.618Z,95.00
2019-05-21T00:03:46.448Z,94.60
2019-05-21T00:06:15.298Z,94.80
2019-05-21T00:08:44.157Z,95.00
2019-05-21T00:11:13.321Z,94.50
2019-05-21T00:13:42.140Z,94.20
2019-05-21T00:16:10.930Z,94.30
2019-05-21T00:18:39.671Z,93.90
2019-05-21T00:21:08.513Z,94.30
2019-05-21T00:23:37.315Z,94.00
2019-05-21T00:26:06.193Z,93.90
2019-05-21T00:28:38.852Z,93.20
2019-05-21T00:31:44.323Z,93.40
2019-05-21T00:34:49.437Z,93.20
2019-05-21T00:37:54.538Z,92.70
2019-05-21T00:40:59.558Z,92.50
2019-05-21T00:43:34.266Z,92.10
2019-05-21T00:46:03.145Z,92.00
2019-05-21T00:48:31.936Z,91.50
2019-05-21T00:51:00.761Z,91.40
2019-05-21T00:53:29.574Z,91.20
2019-05-21T00:55:58.389Z,90.90
2019-05-21T00:58:27.198Z,91.10
2019-05-21T01:00:56.049Z,91.10
2019-05-21T01:03:24.822Z,91.40
2019-05-21T01:05:53.618Z,91.20
2019-05-21T01:08:22.472Z,91.30
2019-05-21T01:10:51.243Z,91.10
2019-05-21T01:13:20.014Z,91.10
2019-05-21T01:15:48.839Z,91.30
2019-05-21T01:18:17.664Z,91.00
2019-05-21T01:20:46.458Z,91.20
2019-05-21T01:23:15.257Z,92.50
2019-05-21T01:25:44.082Z,95.30
2019-05-21T01:28:12.957Z,95.20
2019-05-21T01:30:41.823Z,94.50
2019-05-21T01:33:10.688Z,94.80
2019-05-21T01:35:39.588Z,95.20
2019-05-21T01:38:08.408Z,95.20
2019-05-21T01:40:37.179Z,94.10
2019-05-21T01:43:06.017Z,93.90
2019-05-21T01:45:34.828Z,93.20
2019-05-21T01:48:03.627Z,92.80
2019-05-21T01:50:32.457Z,92.60
2019-05-21T01:53:01.231Z,92.40
2019-05-21T01:55:30.171Z,92.10
2019-05-21T01:57:58.987Z,91.70
2019-05-21T02:00:27.834Z,91.60
2019-05-21T02:02:56.566Z,91.20
2019-05-21T02:05:32.925Z,91.30
2019-05-21T02:07:55.831Z,91.00
2019-05-21T02:10:24.615Z,90.90
2019-05-21T02:12:53.640Z,90.90
2019-05-21T02:15:22.383Z,90.70
2019-05-21T02:17:51.226Z,90.80
2019-05-21T02:20:20.102Z,90.50
2019-05-21T02:22:48.881Z,90.50
2019-05-21T02:25:17.875Z,90.20
2019-05-21T02:27:46.653Z,90.30
2019-05-21T02:30:16.734Z,90.30
2019-05-21T02:32:45.641Z,90.20
2019-05-21T02:35:14.427Z,90.00
2019-05-21T02:37:43.219Z,89.90
2019-05-21T02:40:12.664Z,89.00
2019-05-21T02:42:41.418Z,88.50
2019-05-21T02:45:10.687Z,88.20
2019-05-21T02:47:39.586Z,87.50
2019-05-21T02:50:08.892Z,86.40
2019-05-21T02:52:37.802Z,85.90
2019-05-21T02:55:07.130Z,85.60
2019-05-21T02:57:43.458Z,85.80
2019-05-21T03:00:16.807Z,85.30
2019-05-21T03:02:45.582Z,85.10
2019-05-21T03:05:14.468Z,82.80
2019-05-21T03:07:43.305Z,80.20
2019-05-21T03:10:12.170Z,78.00
2019-05-21T03:12:40.949Z,77.80
2019-05-21T03:15:09.693Z,77.70
2019-05-21T03:17:38.515Z,78.20
2019-05-21T03:20:10.773Z,77.30
2019-05-21T03:22:39.504Z,77.50
2019-05-21T03:25:08.610Z,77.60
2019-05-21T03:27:37.408Z,78.20
2019-05-21T03:30:07.519Z,78.20
2019-05-21T03:32:36.330Z,77.50
2019-05-21T03:35:06.318Z,77.50
2019-05-21T03:37:35.211Z,76.40
2019-05-21T03:40:07.336Z,75.90
2019-05-21T03:42:36.127Z,75.50
2019-05-21T03:45:07.963Z,75.30
2019-05-21T03:47:37.194Z,74.70
2019-05-21T03:50:06.659Z,73.80
2019-05-21T03:52:35.592Z,72.50
2019-05-21T03:58:32.876Z,64.60
2019-05-21T04:01:01.681Z,61.70
2019-05-21T04:03:30.440Z,62.30
2019-05-21T04:05:59.333Z,62.20
2019-05-21T04:08:28.114Z,59.90
2019-05-21T04:10:57.045Z,56.90
2019-05-21T04:13:25.903Z,54.40
2019-05-21T04:15:56.313Z,54.10
2019-05-21T04:18:29.344Z,54.40
2019-05-21T04:20:58.157Z,55.20
2019-05-21T04:23:27.312Z,53.80
2019-05-21T04:25:56.150Z,51.90
2019-05-21T04:28:24.904Z,49.80
2019-05-21T04:30:53.736Z,48.60
2019-05-21T04:33:22.544Z,47.00
2019-05-21T04:35:51.317Z,44.50
2019-05-21T04:38:20.125Z,42.00
2019-05-21T04:40:48.923Z,40.80
2019-05-21T04:43:17.725Z,39.10
2019-05-21T04:45:46.522Z,36.90
2019-05-21T04:48:15.327Z,35.20
2019-05-21T04:50:44.157Z,34.60
2019-05-21T04:53:15.863Z,32.90
2019-05-21T04:55:44.823Z,31.70
2019-05-21T04:58:13.694Z,30.60
2019-05-21T05:00:42.603Z,30.60
2019-05-21T05:03:11.447Z,31.40
2019-05-21T05:05:40.248Z,33.30
2019-05-21T05:08:09.117Z,33.20
2019-05-21T05:10:37.896Z,32.00
2019-05-21T05:13:06.724Z,30.70
2019-05-21T05:15:35.481Z,29.00
2019-05-21T05:18:04.282Z,27.30
2019-05-21T05:20:33.141Z,26.90
2019-05-21T05:23:02.039Z,26.70
2019-05-21T05:25:30.860Z,26.60
2019-05-21T05:27:59.613Z,26.30
2019-05-21T05:30:28.366Z,26.20
2019-05-21T05:32:57.177Z,26.60
2019-05-21T05:35:25.927Z,26.80
2019-05-21T05:37:54.718Z,28.20
2019-05-21T05:40:23.542Z,29.10
2019-05-21T05:42:52.332Z,30.10
2019-05-21T05:45:21.391Z,31.40
2019-05-21T05:47:50.178Z,31.80
2019-05-21T05:50:29.602Z,31.80
2019-05-21T05:52:58.839Z,32.60
2019-05-21T05:55:27.660Z,33.70
2019-05-21T05:57:56.524Z,34.40
2019-05-21T06:00:25.369Z,35.30
2019-05-21T06:02:54.147Z,35.80
2019-05-21T06:05:22.952Z,36.80
2019-05-21T06:07:59.906Z,38.00
2019-05-21T06:10:22.247Z,39.10
2019-05-21T06:12:51.052Z,39.80
2019-05-21T06:15:19.949Z,40.60
2019-05-21T06:17:48.755Z,41.30
2019-05-21T06:20:17.955Z,41.20
2019-05-21T06:22:46.787Z,41.30
2019-05-21T06:25:16.080Z,40.60
2019-05-21T06:27:44.853Z,39.40
2019-05-21T06:30:14.156Z,39.00
2019-05-21T06:32:42.908Z,39.10
2019-05-21T06:35:11.879Z,37.80
2019-05-21T06:37:40.761Z,36.70
2019-05-21T06:40:09.955Z,35.70
2019-05-21T06:42:38.835Z,33.90
2019-05-21T06:45:09.072Z,30.70
2019-05-21T06:47:37.846Z,28.50
2019-05-21T06:50:06.919Z,25.80
2019-05-21T06:52:35.795Z,24.60
2019-05-21T06:55:05.618Z,23.60
2019-05-21T06:57:34.425Z,23.30
2019-05-21T07:00:04.153Z,22.60
2019-05-21T07:02:32.944Z,22.70
2019-05-21T07:05:01.818Z,22.70
2019-05-21T07:07:30.639Z,22.80
2019-05-21T07:09:59.482Z,22.50
2019-05-21T07:12:28.230Z,22.50
2019-05-21T07:14:57.067Z,23.20
2019-05-21T07:17:25.867Z,24.10
2019-05-21T07:19:54.758Z,24.90
2019-05-21T07:22:23.546Z,25.80
2019-05-21T07:24:52.414Z,25.60
2019-05-21T07:27:21.233Z,26.10
2019-05-21T07:29:50.080Z,27.20
2019-05-21T07:32:18.859Z,28.00
2019-05-21T07:34:47.654Z,28.90
2019-05-21T07:37:16.493Z,29.50
2019-05-21T07:39:45.310Z,29.90
2019-05-21T07:42:14.135Z,29.70
2019-05-21T07:44:42.967Z,29.50
2019-05-21T07:47:11.831Z,28.90
2019-05-21T07:49:40.627Z,28.80
2019-05-21T07:52:09.479Z,28.70
2019-05-21T07:54:38.371Z,29.00
2019-05-21T07:57:07.139Z,29.40
2019-05-21T07:59:36.005Z,30.40
2019-05-21T08:02:04.964Z,31.30
2019-05-21T08:04:33.735Z,31.50
2019-05-21T08:07:02.603Z,32.40
2019-05-21T08:09:31.488Z,31.30
2019-05-21T08:12:00.264Z,30.00
2019-05-21T08:14:29.086Z,29.70
2019-05-21T08:16:57.899Z,28.60
2019-05-21T08:19:26.666Z,26.90
2019-05-21T08:21:55.495Z,26.40
2019-05-21T08:24:24.247Z,25.30
2019-05-21T08:26:53.072Z,24.60
2019-05-21T08:29:21.823Z,24.10
2019-05-21T08:31:50.613Z,23.10
2019-05-21T08:34:19.473Z,23.40
2019-05-21T08:36:48.301Z,23.40
2019-05-21T08:39:28.207Z,23.50
2019-05-21T08:41:47.573Z,23.50
2019-05-21T08:44:16.487Z,23.80
2019-05-21T08:46:45.226Z,24.00
2019-05-21T08:49:14.083Z,24.80
2019-05-21T08:51:42.997Z,25.70
2019-05-21T08:54:11.831Z,26.90
2019-05-21T08:56:40.758Z,27.70
2019-05-21T08:59:09.516Z,28.50
2019-05-21T09:01:38.338Z,29.20
2019-05-21T09:04:07.147Z,29.70
2019-05-21T09:06:35.918Z,30.70
2019-05-21T09:09:05.839Z,31.70
2019-05-21T09:11:34.693Z,32.30
2019-05-21T09:14:03.939Z,32.50
2019-05-21T09:16:33.134Z,32.70
2019-05-21T09:19:01.923Z,32.90
2019-05-21T09:21:30.727Z,33.00
2019-05-21T09:23:59.527Z,32.90
2019-05-21T09:26:28.360Z,32.60
2019-05-21T09:28:57.129Z,32.00
2019-05-21T09:31:25.972Z,31.40
2019-05-21T09:33:54.739Z,30.90
2019-05-21T09:36:25.264Z,31.40
2019-05-21T09:38:54.083Z,31.80
2019-05-21T09:41:22.968Z,31.40
2019-05-21T09:43:51.744Z,31.90
2019-05-21T09:46:20.489Z,32.70
2019-05-21T09:48:49.336Z,33.30
2019-05-21T09:51:20.124Z,34.00
2019-05-21T09:53:48.632Z,34.30
2019-05-21T09:56:34.764Z,34.80
2019-05-21T09:59:25.711Z,34.90
2019-05-21T10:01:56.168Z,35.30
2019-05-21T10:04:24.979Z,35.70
2019-05-21T10:06:53.918Z,35.60
2019-05-21T10:09:22.772Z,35.90
2019-05-21T10:11:51.602Z,35.40
2019-05-21T10:14:20.396Z,35.40
2019-05-21T10:16:49.223Z,35.60
2019-05-21T10:19:18.027Z,36.20
2019-05-21T10:21:46.837Z,35.70
2019-05-21T10:24:15.654Z,35.80
2019-05-21T10:26:44.464Z,35.90
2019-05-21T10:29:13.260Z,35.80
2019-05-21T10:31:42.015Z,35.70
2019-05-21T10:34:13.290Z,35.90
2019-05-21T10:36:41.277Z,35.70
2019-05-21T10:39:10.075Z,36.20
2019-05-21T10:41:38.898Z,36.20
2019-05-21T10:44:07.829Z,36.30
2019-05-21T10:46:36.753Z,36.30
2019-05-21T10:49:06.062Z,35.50
2019-05-21T10:51:34.930Z,35.50
2019-05-21T10:54:04.612Z,36.10
2019-05-21T10:56:46.677Z,36.00
2019-05-21T10:59:04.043Z,36.60
2019-05-21T11:01:46.587Z,37.00
2019-05-21T11:04:17.030Z,37.40
2019-05-21T11:06:47.452Z,37.30
2019-05-21T11:09:18.028Z,37.40
2019-05-21T11:11:46.915Z,37.20
2019-05-21T11:14:15.676Z,37.10
2019-05-21T11:16:44.571Z,36.90
2019-05-21T11:19:13.424Z,36.90
2019-05-21T11:21:42.244Z,36.90
2019-05-21T11:24:11.204Z,36.70
2019-05-21T11:26:40.073Z,36.20
2019-05-21T11:29:08.884Z,35.90
2019-05-21T11:31:37.726Z,35.50
2019-05-21T11:34:06.655Z,35.10
2019-05-21T11:36:35.469Z,34.00
2019-05-21T11:39:05.713Z,33.90
2019-05-21T11:41:34.640Z,33.90
2019-05-21T11:44:03.494Z,34.10
2019-05-21T11:46:33.652Z,34.30
2019-05-21T11:49:02.499Z,34.50
2019-05-21T11:51:31.235Z,34.50
2019-05-21T11:54:00.062Z,34.30
2019-05-21T11:56:28.876Z,34.50
2019-05-21T11:58:59.701Z,35.00
2019-05-21T12:01:28.605Z,35.30
2019-05-21T12:03:57.347Z,34.90
2019-05-21T12:06:26.244Z,34.70
2019-05-21T12:08:57.117Z,34.90
2019-05-21T12:11:25.529Z,35.20
2019-05-21T12:13:54.366Z,34.70
2019-05-21T12:16:23.164Z,34.80
2019-05-21T12:18:52.062Z,35.10
2019-05-21T12:21:20.838Z,35.00
2019-05-21T12:23:49.729Z,34.90
2019-05-21T12:26:18.604Z,34.70
2019-05-21T12:28:47.408Z,34.80
2019-05-21T12:31:16.313Z,35.00
2019-05-21T12:33:45.072Z,34.80
2019-05-21T12:36:13.920Z,34.40
2019-05-21T12:38:42.730Z,34.70
2019-05-21T12:41:13.666Z,34.90
2019-05-21T12:43:42.019Z,34.90
2019-05-21T12:46:10.796Z,35.10
2019-05-21T12:48:39.601Z,34.50
2019-05-21T12:51:09.261Z,34.60
2019-05-21T12:53:38.034Z,34.70
2019-05-21T12:56:06.905Z,35.20
2019-05-21T12:58:35.695Z,35.40
2019-05-21T13:01:04.526Z,35.50
2019-05-21T13:03:33.406Z,35.50
2019-05-21T13:06:02.494Z,34.80
2019-05-21T13:08:31.578Z,34.60
2019-05-21T13:11:00.386Z,34.40
2019-05-21T13:13:29.262Z,34.60
2019-05-21T13:15:58.014Z,34.30
2019-05-21T13:18:26.847Z,34.30
2019-05-21T13:20:55.767Z,34.20
2019-05-21T13:23:24.566Z,34.50
2019-05-21T13:25:53.416Z,34.50
2019-05-21T13:28:22.355Z,34.60
2019-05-21T13:30:51.161Z,34.50
2019-05-21T13:33:19.974Z,34.90
2019-05-21T13:35:48.771Z,34.10
2019-05-21T13:38:17.560Z,33.80
2019-05-21T13:40:46.531Z,33.40
2019-05-21T13:43:15.315Z,33.10
2019-05-21T13:45:44.169Z,33.30
2019-05-21T13:48:13.004Z,33.40
2019-05-21T13:50:41.818Z,33.40
2019-05-21T13:53:10.677Z,33.10
2019-05-21T13:55:39.735Z,32.80
2019-05-21T13:58:08.715Z,32.90
2019-05-21T14:00:39.116Z,32.60
2019-05-21T14:03:08.569Z,32.50
2019-05-21T14:05:38.169Z,33.00
2019-05-21T14:08:08.085Z,32.90
2019-05-21T14:10:36.922Z,32.70
2019-05-21T14:13:06.031Z,32.70
2019-05-21T14:15:34.840Z,32.50
2019-05-21T14:18:03.706Z,32.70
2019-05-21T14:20:32.674Z,32.40
2019-05-21T14:27:44.341Z,32.30
2019-05-21T14:30:09.736Z,32.40
2019-05-21T14:32:38.490Z,32.50
2019-05-21T14:35:07.667Z,32.20
2019-05-21T14:37:36.499Z,32.50
2019-05-21T14:40:07.378Z,33.00
2019-05-21T14:42:36.135Z,33.20
2019-05-21T14:45:06.999Z,33.40
2019-05-21T14:47:35.896Z,34.50
2019-05-21T14:50:07.258Z,35.10
2019-05-21T14:52:36.121Z,35.40
2019-05-21T14:55:09.890Z,36.10
2019-05-21T14:57:38.733Z,36.40
2019-05-21T15:00:11.052Z,36.60
2019-05-21T15:02:39.933Z,37.10
2019-05-21T15:05:09.334Z,36.90
2019-05-21T15:07:38.176Z,37.10
2019-05-21T15:10:06.931Z,37.10
2019-05-21T15:12:35.727Z,37.00
2019-05-21T15:15:06.556Z,36.80
2019-05-21T15:17:35.396Z,36.50
2019-05-21T15:20:08.960Z,36.30
2019-05-21T15:22:37.044Z,36.40
2019-05-21T15:25:06.646Z,36.40
2019-05-21T15:27:35.428Z,36.10
2019-05-21T15:30:05.954Z,36.00
2019-05-21T15:32:34.829Z,35.90
2019-05-21T15:35:04.447Z,36.00
2019-05-21T15:37:33.249Z,36.10
2019-05-21T15:40:02.070Z,36.40
2019-05-21T15:42:30.877Z,36.10
2019-05-21T15:44:59.769Z,36.00
2019-05-21T15:47:28.570Z,35.80
2019-05-21T15:49:57.320Z,35.90
2019-05-21T15:52:26.186Z,35.90
2019-05-21T15:54:55.146Z,36.10
2019-05-21T15:57:23.925Z,36.30
2019-05-21T15:59:52.772Z,36.40
2019-05-21T16:02:21.679Z,36.50
2019-05-21T16:04:50.524Z,36.50
2019-05-21T16:07:19.392Z,36.50
2019-05-21T16:09:48.241Z,36.30
2019-05-21T16:12:17.000Z,36.20
2019-05-21T16:14:45.894Z,36.30
2019-05-21T16:17:14.705Z,36.10
2019-05-21T16:19:43.499Z,35.70
2019-05-21T16:22:12.273Z,35.80
2019-05-21T16:24:41.123Z,35.80
2019-05-21T16:27:09.948Z,35.50
2019-05-21T16:29:38.692Z,35.30
2019-05-21T16:32:07.463Z,35.30
2019-05-21T16:34:36.365Z,35.30
2019-05-21T16:37:05.417Z,35.20
2019-05-21T16:39:34.859Z,35.50
2019-05-21T16:42:03.712Z,35.50
2019-05-21T16:44:32.561Z,35.60
2019-05-21T16:47:01.461Z,35.80
2019-05-21T16:49:30.324Z,36.10
2019-05-21T16:51:59.153Z,36.30
2019-05-21T16:54:27.996Z,36.50
2019-05-21T16:56:56.864Z,37.00
2019-05-21T16:59:25.721Z,36.60
2019-05-21T17:01:54.550Z,36.80
2019-05-21T17:04:23.313Z,37.70
2019-05-21T17:06:52.225Z,38.20
2019-05-21T17:09:21.033Z,39.10
2019-05-21T17:11:59.420Z,39.50
2019-05-21T17:14:20.296Z,40.00
2019-05-21T17:16:49.210Z,40.60
2019-05-21T17:19:18.059Z,41.00
2019-05-21T17:21:46.845Z,41.60
2019-05-21T17:24:15.634Z,41.60
2019-05-21T17:26:44.382Z,42.20
2019-05-21T17:29:13.289Z,82.10
2019-05-21T17:38:52.006Z,99.90
2019-05-21T17:41:20.858Z,99.90
2019-05-21T17:43:54.982Z,99.90
2019-05-21T17:46:23.746Z,99.90
2019-05-21T17:48:52.675Z,99.90
2019-05-21T17:51:21.486Z,99.90
2019-05-21T17:53:50.353Z,99.90
2019-05-21T17:56:19.190Z,99.90
2019-05-21T17:58:48.269Z,99.90
2019-05-21T18:01:17.823Z,99.90
2019-05-21T18:03:46.654Z,99.90
2019-05-21T18:08:47.212Z,99.90
2019-05-21T18:11:17.534Z,99.90
2019-05-21T18:13:48.125Z,99.90
2019-05-21T18:16:17.530Z,99.90
2019-05-21T18:18:47.248Z,99.90
2019-05-21T18:21:16.517Z,99.90
2019-05-21T18:23:45.340Z,99.90
2019-05-21T18:26:14.431Z,99.90
2019-05-21T18:28:43.206Z,99.90
2019-05-21T18:31:12.328Z,99.90
2019-05-21T18:33:41.137Z,99.90
2019-05-21T18:39:39.174Z,99.90
2019-05-21T18:42:21.061Z,99.90
2019-05-21T18:44:38.716Z,99.90
2019-05-21T18:47:07.678Z,99.90
2019-05-21T18:49:36.551Z,99.90
2019-05-21T18:52:05.396Z,99.90
2019-05-21T18:54:34.303Z,99.90
2019-05-21T18:57:03.078Z,99.90
2019-05-21T18:59:32.073Z,99.90
2019-05-21T19:02:04.374Z,99.90
2019-05-21T19:04:36.199Z,99.90
2019-05-21T19:13:30.605Z,99.90
2019-05-21T19:15:59.494Z,99.90
2019-05-21T19:18:28.342Z,99.90
2019-05-21T19:20:57.382Z,99.90
2019-05-21T19:23:26.269Z,99.90
2019-05-21T19:25:55.196Z,99.90
2019-05-21T19:28:24.066Z,99.90
2019-05-21T19:30:52.837Z,99.90
2019-05-21T19:33:21.751Z,99.90
2019-05-21T19:35:50.634Z,99.90
2019-05-21T19:38:19.533Z,99.90
2019-05-21T19:40:48.704Z,99.90
2019-05-21T19:43:17.499Z,99.90
2019-05-21T19:45:46.386Z,99.90
2019-05-21T19:48:15.177Z,99.90
2019-05-21T19:50:43.973Z,99.90
2019-05-21T19:53:12.805Z,99.90
2019-05-21T19:55:41.638Z,99.90
2019-05-21T19:58:10.715Z,99.90
2019-05-21T20:00:41.126Z,99.90
2019-05-21T20:03:10.044Z,99.90
2019-05-21T20:05:38.905Z,99.90
2019-05-21T20:08:07.837Z,99.90
2019-05-21T20:10:37.151Z,99.90
2019-05-21T20:13:06.085Z,99.90
2019-05-21T20:15:35.372Z,99.90
2019-05-21T20:18:07.398Z,99.90
2019-05-21T20:20:35.337Z,99.90
2019-05-21T20:23:08.286Z,99.90
2019-05-21T20:25:36.073Z,99.90
2019-05-21T20:28:06.710Z,99.90
2019-05-21T20:30:35.923Z,99.90
2019-05-21T20:33:04.737Z,99.90
2019-05-21T20:35:34.000Z,99.90
2019-05-21T20:38:03.772Z,99.90
2019-05-21T20:40:35.766Z,99.90
2019-05-21T20:43:05.630Z,99.90
2019-05-21T20:45:36.247Z,99.90
2019-05-21T20:48:06.087Z,99.90
2019-05-21T20:50:36.643Z,99.90
2019-05-21T20:53:06.653Z,99.90
2019-05-21T20:55:36.063Z,99.90
2019-05-21T20:58:05.607Z,99.90
2019-05-21T21:00:36.844Z,99.90
2019-05-21T21:03:07.561Z,99.90
2019-05-21T21:05:36.860Z,99.90
2019-05-21T21:08:07.004Z,99.90
2019-05-21T21:10:39.738Z,99.90
2019-05-21T21:13:13.659Z,99.90
2019-05-21T21:15:43.007Z,99.90
2019-05-21T21:18:22.887Z,99.90
2019-05-21T21:20:54.360Z,99.90
2019-05-21T21:23:24.711Z,99.90
2019-05-21T21:25:55.916Z,99.90
2019-05-21T21:28:24.704Z,99.90
2019-05-21T21:30:54.677Z,99.90
2019-05-21T21:33:23.808Z,99.90
2019-05-21T21:35:56.647Z,99.90
2019-05-21T21:38:27.073Z,99.90
2019-05-21T21:40:56.321Z,99.90
2019-05-21T21:43:27.185Z,99.90
2019-05-21T21:45:56.237Z,99.90
2019-05-21T21:48:25.415Z,99.90
2019-05-21T21:50:55.709Z,99.90
2019-05-21T21:53:24.563Z,99.90
2019-05-21T21:55:53.447Z,99.90
2019-05-21T21:58:22.282Z,99.90
2019-05-21T22:01:20.736Z,99.90
2019-05-21T22:03:50.174Z,99.90
2019-05-21T22:06:20.647Z,99.90
2019-05-21T22:08:49.425Z,99.90
2019-05-21T22:11:19.042Z,99.90
2019-05-21T22:13:48.534Z,99.90
2019-05-21T22:16:17.391Z,99.90
2019-05-21T22:18:46.449Z,99.90
2019-05-21T22:21:16.211Z,99.90
2019-05-21T22:23:45.356Z,99.90
2019-05-21T22:26:14.269Z,99.90
2019-05-21T22:28:43.635Z,99.90
2019-05-21T22:31:12.575Z,99.90
2019-05-21T22:33:41.428Z,99.90
2019-05-21T22:36:11.403Z,99.90
2019-05-21T22:38:40.275Z,99.90
2019-05-21T22:41:09.039Z,99.90
2019-05-21T22:43:37.919Z,99.90
2019-05-21T22:46:07.106Z,99.90
2019-05-21T22:48:35.993Z,99.90
2019-05-21T22:51:04.839Z,99.90
2019-05-21T22:53:33.637Z,99.90
2019-05-21T22:56:02.458Z,99.90
2019-05-21T22:58:31.369Z,99.90
2019-05-21T23:01:01.136Z,99.90
2019-05-21T23:03:30.401Z,99.90
2019-05-21T23:05:59.243Z,99.90
2019-05-21T23:08:28.167Z,99.90
2019-05-21T23:10:56.971Z,99.90
2019-05-21T23:13:25.727Z,99.90
2019-05-21T23:15:56.133Z,99.90
2019-05-21T23:18:24.886Z,99.90
2019-05-21T23:20:56.093Z,99.90
2019-05-21T23:23:25.770Z,99.90
2019-05-21T23:25:56.906Z,99.90
2019-05-21T23:28:25.855Z,99.90
2019-05-21T23:30:55.185Z,99.90
2019-05-21T23:33:25.619Z,99.90
2019-05-21T23:35:54.544Z,99.90
2019-05-21T23:38:23.723Z,99.90
2019-05-21T23:40:52.655Z,99.90
2019-05-21T23:43:21.756Z,99.90
2019-05-21T23:45:50.724Z,99.90
2019-05-21T23:48:19.544Z,99.90
2019-05-21T23:50:48.767Z,99.90
2019-05-21T23:53:17.634Z,99.90
2019-05-21T23:55:46.785Z,99.90
2019-05-21T23:58:15.783Z,99.90
